sensor_id;sensor_type;location;lat;lon;timestamp;P1;durP1;ratioP1;P2;durP2;ratioP2
42912;SDS011;50720;54.324;18.558;2023-12-28T00:02:03;14.20;;;7.03;;
42912;SDS011;50720;54.324;18.558;2023-12-28T00:04:46;23.58;;;8.38;;
42912;SDS011;50720;54.324;18.558;2023-12-28T00:07:30;22.40;;;8.75;;
42912;SDS011;50720;54.324;18.558;2023-12-28T00:16:09;26.05;;;9.05;;
42912;SDS011;50720;54.324;18.558;2023-12-28T00:18:53;21.63;;;8.40;;
42912;SDS011;50720;54.324;18.558;2023-12-28T00:21:37;28.58;;;9.73;;
42912;SDS011;50720;54.324;18.558;2023-12-28T00:24:21;23.83;;;11.38;;
42912;SDS011;50720;54.324;18.558;2023-12-28T00:27:05;26.65;;;9.35;;
42912;SDS011;50720;54.324;18.558;2023-12-28T00:29:48;35.33;;;11.57;;
42912;SDS011;50720;54.324;18.558;2023-12-28T00:32:33;25.45;;;9.73;;
42912;SDS011;50720;54.324;18.558;2023-12-28T00:35:17;39.85;;;11.43;;
42912;SDS011;50720;54.324;18.558;2023-12-28T00:38:00;25.40;;;10.82;;
42912;SDS011;50720;54.324;18.558;2023-12-28T00:40:45;33.80;;;14.00;;
42912;SDS011;50720;54.324;18.558;2023-12-28T00:43:28;31.42;;;12.40;;
42912;SDS011;50720;54.324;18.558;2023-12-28T00:46:11;38.25;;;14.13;;
42912;SDS011;50720;54.324;18.558;2023-12-28T00:48:56;34.95;;;12.70;;
42912;SDS011;50720;54.324;18.558;2023-12-28T00:51:40;27.65;;;11.48;;
42912;SDS011;50720;54.324;18.558;2023-12-28T00:54:23;31.08;;;13.45;;
42912;SDS011;50720;54.324;18.558;2023-12-28T00:57:07;33.22;;;14.35;;
42912;SDS011;50720;54.324;18.558;2023-12-28T00:59:51;35.35;;;12.75;;
42912;SDS011;50720;54.324;18.558;2023-12-28T01:02:34;29.90;;;14.05;;
42912;SDS011;50720;54.324;18.558;2023-12-28T01:05:19;33.67;;;13.73;;
42912;SDS011;50720;54.324;18.558;2023-12-28T01:08:03;33.08;;;11.90;;
42912;SDS011;50720;54.324;18.558;2023-12-28T01:10:47;33.03;;;12.40;;
42912;SDS011;50720;54.324;18.558;2023-12-28T01:13:31;27.83;;;11.57;;
42912;SDS011;50720;54.324;18.558;2023-12-28T01:16:14;33.22;;;11.50;;
42912;SDS011;50720;54.324;18.558;2023-12-28T01:18:58;29.70;;;11.80;;
42912;SDS011;50720;54.324;18.558;2023-12-28T01:21:43;23.35;;;12.10;;
42912;SDS011;50720;54.324;18.558;2023-12-28T01:24:27;30.90;;;9.68;;
42912;SDS011;50720;54.324;18.558;2023-12-28T01:27:10;22.50;;;11.82;;
42912;SDS011;50720;54.324;18.558;2023-12-28T01:29:53;28.92;;;10.57;;
42912;SDS011;50720;54.324;18.558;2023-12-28T01:32:37;31.90;;;11.68;;
42912;SDS011;50720;54.324;18.558;2023-12-28T01:35:21;29.35;;;10.00;;
42912;SDS011;50720;54.324;18.558;2023-12-28T01:38:06;28.23;;;10.52;;
42912;SDS011;50720;54.324;18.558;2023-12-28T01:40:49;42.45;;;11.25;;
42912;SDS011;50720;54.324;18.558;2023-12-28T01:43:36;30.05;;;12.45;;
42912;SDS011;50720;54.324;18.558;2023-12-28T01:46:20;33.03;;;9.60;;
42912;SDS011;50720;54.324;18.558;2023-12-28T01:49:04;30.77;;;10.00;;
42912;SDS011;50720;54.324;18.558;2023-12-28T01:51:48;22.52;;;9.60;;
42912;SDS011;50720;54.324;18.558;2023-12-28T01:54:34;34.42;;;11.95;;
42912;SDS011;50720;54.324;18.558;2023-12-28T01:57:19;22.00;;;8.98;;
42912;SDS011;50720;54.324;18.558;2023-12-28T02:00:03;30.55;;;11.25;;
42912;SDS011;50720;54.324;18.558;2023-12-28T02:02:47;22.30;;;9.25;;
42912;SDS011;50720;54.324;18.558;2023-12-28T02:05:31;26.27;;;10.32;;
42912;SDS011;50720;54.324;18.558;2023-12-28T02:08:16;29.10;;;11.63;;
42912;SDS011;50720;54.324;18.558;2023-12-28T02:11:01;22.35;;;9.63;;
42912;SDS011;50720;54.324;18.558;2023-12-28T02:13:44;26.33;;;10.98;;
42912;SDS011;50720;54.324;18.558;2023-12-28T02:16:30;32.42;;;12.73;;
42912;SDS011;50720;54.324;18.558;2023-12-28T02:19:18;27.30;;;11.00;;
42912;SDS011;50720;54.324;18.558;2023-12-28T02:22:14;23.33;;;11.75;;
42912;SDS011;50720;54.324;18.558;2023-12-28T02:25:02;30.60;;;12.00;;
42912;SDS011;50720;54.324;18.558;2023-12-28T02:27:48;34.90;;;12.68;;
42912;SDS011;50720;54.324;18.558;2023-12-28T02:30:32;36.25;;;14.07;;
42912;SDS011;50720;54.324;18.558;2023-12-28T02:33:18;29.13;;;13.68;;
42912;SDS011;50720;54.324;18.558;2023-12-28T02:36:07;35.85;;;13.52;;
42912;SDS011;50720;54.324;18.558;2023-12-28T02:38:53;38.15;;;15.90;;
42912;SDS011;50720;54.324;18.558;2023-12-28T02:41:42;40.58;;;14.10;;
42912;SDS011;50720;54.324;18.558;2023-12-28T02:44:26;35.00;;;15.18;;
42912;SDS011;50720;54.324;18.558;2023-12-28T02:47:09;44.35;;;15.95;;
42912;SDS011;50720;54.324;18.558;2023-12-28T02:49:53;40.08;;;14.85;;
42912;SDS011;50720;54.324;18.558;2023-12-28T02:52:37;39.92;;;16.52;;
42912;SDS011;50720;54.324;18.558;2023-12-28T02:55:20;42.95;;;16.52;;
42912;SDS011;50720;54.324;18.558;2023-12-28T02:58:05;47.03;;;18.08;;
42912;SDS011;50720;54.324;18.558;2023-12-28T03:00:48;43.85;;;18.13;;
42912;SDS011;50720;54.324;18.558;2023-12-28T03:03:32;49.50;;;18.92;;
42912;SDS011;50720;54.324;18.558;2023-12-28T03:06:16;41.47;;;18.30;;
42912;SDS011;50720;54.324;18.558;2023-12-28T03:09:00;46.17;;;18.23;;
42912;SDS011;50720;54.324;18.558;2023-12-28T03:11:44;39.10;;;17.58;;
42912;SDS011;50720;54.324;18.558;2023-12-28T03:14:29;42.67;;;17.35;;
42912;SDS011;50720;54.324;18.558;2023-12-28T03:17:12;48.33;;;19.80;;
42912;SDS011;50720;54.324;18.558;2023-12-28T03:19:56;46.28;;;19.23;;
42912;SDS011;50720;54.324;18.558;2023-12-28T03:22:41;45.13;;;18.17;;
42912;SDS011;50720;54.324;18.558;2023-12-28T03:25:25;39.17;;;18.15;;
42912;SDS011;50720;54.324;18.558;2023-12-28T03:28:08;42.63;;;19.83;;
42912;SDS011;50720;54.324;18.558;2023-12-28T03:30:53;46.33;;;17.90;;
42912;SDS011;50720;54.324;18.558;2023-12-28T03:33:37;39.53;;;18.00;;
42912;SDS011;50720;54.324;18.558;2023-12-28T03:36:20;45.65;;;19.35;;
42912;SDS011;50720;54.324;18.558;2023-12-28T03:39:04;50.28;;;20.73;;
42912;SDS011;50720;54.324;18.558;2023-12-28T03:41:48;48.58;;;22.02;;
42912;SDS011;50720;54.324;18.558;2023-12-28T03:44:32;50.83;;;20.95;;
42912;SDS011;50720;54.324;18.558;2023-12-28T03:47:17;48.85;;;21.60;;
42912;SDS011;50720;54.324;18.558;2023-12-28T03:50:00;44.20;;;20.08;;
42912;SDS011;50720;54.324;18.558;2023-12-28T03:52:44;48.03;;;20.85;;
42912;SDS011;50720;54.324;18.558;2023-12-28T03:55:27;48.70;;;19.58;;
42912;SDS011;50720;54.324;18.558;2023-12-28T03:58:11;49.97;;;19.00;;
42912;SDS011;50720;54.324;18.558;2023-12-28T04:00:55;48.92;;;19.85;;
42912;SDS011;50720;54.324;18.558;2023-12-28T04:03:40;43.95;;;21.02;;
42912;SDS011;50720;54.324;18.558;2023-12-28T04:06:23;45.38;;;20.27;;
42912;SDS011;50720;54.324;18.558;2023-12-28T04:09:07;51.70;;;19.38;;
42912;SDS011;50720;54.324;18.558;2023-12-28T04:11:50;50.35;;;22.30;;
42912;SDS011;50720;54.324;18.558;2023-12-28T04:14:35;49.63;;;20.55;;
42912;SDS011;50720;54.324;18.558;2023-12-28T04:17:18;47.42;;;19.15;;
42912;SDS011;50720;54.324;18.558;2023-12-28T04:20:05;43.60;;;19.23;;
42912;SDS011;50720;54.324;18.558;2023-12-28T04:22:49;52.78;;;19.15;;
42912;SDS011;50720;54.324;18.558;2023-12-28T04:25:33;36.92;;;17.23;;
42912;SDS011;50720;54.324;18.558;2023-12-28T04:28:17;45.15;;;21.05;;
42912;SDS011;50720;54.324;18.558;2023-12-28T04:31:01;47.75;;;18.65;;
42912;SDS011;50720;54.324;18.558;2023-12-28T04:33:46;35.10;;;16.05;;
42912;SDS011;50720;54.324;18.558;2023-12-28T04:36:32;42.75;;;16.88;;
42912;SDS011;50720;54.324;18.558;2023-12-28T04:39:15;40.05;;;15.68;;
42912;SDS011;50720;54.324;18.558;2023-12-28T04:41:59;38.40;;;16.77;;
42912;SDS011;50720;54.324;18.558;2023-12-28T04:44:43;39.00;;;15.48;;
42912;SDS011;50720;54.324;18.558;2023-12-28T04:47:26;33.22;;;14.10;;
42912;SDS011;50720;54.324;18.558;2023-12-28T04:50:10;34.55;;;13.95;;
42912;SDS011;50720;54.324;18.558;2023-12-28T04:52:55;35.42;;;14.13;;
42912;SDS011;50720;54.324;18.558;2023-12-28T04:55:39;36.25;;;13.55;;
42912;SDS011;50720;54.324;18.558;2023-12-28T04:58:22;32.30;;;13.10;;
42912;SDS011;50720;54.324;18.558;2023-12-28T05:01:06;37.22;;;13.73;;
42912;SDS011;50720;54.324;18.558;2023-12-28T05:03:50;35.35;;;12.80;;
42912;SDS011;50720;54.324;18.558;2023-12-28T05:06:34;32.60;;;12.30;;
42912;SDS011;50720;54.324;18.558;2023-12-28T05:09:19;33.95;;;12.95;;
42912;SDS011;50720;54.324;18.558;2023-12-28T05:12:02;28.75;;;11.23;;
42912;SDS011;50720;54.324;18.558;2023-12-28T05:14:47;31.40;;;10.57;;
42912;SDS011;50720;54.324;18.558;2023-12-28T05:17:30;30.95;;;12.82;;
42912;SDS011;50720;54.324;18.558;2023-12-28T05:20:14;27.10;;;10.95;;
42912;SDS011;50720;54.324;18.558;2023-12-28T05:22:58;38.22;;;11.30;;
42912;SDS011;50720;54.324;18.558;2023-12-28T05:25:43;25.02;;;11.43;;
42912;SDS011;50720;54.324;18.558;2023-12-28T05:28:27;30.77;;;11.65;;
42912;SDS011;50720;54.324;18.558;2023-12-28T05:31:11;27.83;;;11.43;;
42912;SDS011;50720;54.324;18.558;2023-12-28T05:33:55;29.00;;;10.85;;
42912;SDS011;50720;54.324;18.558;2023-12-28T05:36:40;25.92;;;11.82;;
42912;SDS011;50720;54.324;18.558;2023-12-28T05:39:27;28.38;;;11.73;;
42912;SDS011;50720;54.324;18.558;2023-12-28T05:42:12;37.97;;;10.82;;
42912;SDS011;50720;54.324;18.558;2023-12-28T05:44:56;27.75;;;9.90;;
42912;SDS011;50720;54.324;18.558;2023-12-28T05:47:39;23.95;;;9.82;;
42912;SDS011;50720;54.324;18.558;2023-12-28T05:50:23;29.83;;;12.50;;
42912;SDS011;50720;54.324;18.558;2023-12-28T05:53:07;29.50;;;11.90;;
42912;SDS011;50720;54.324;18.558;2023-12-28T05:55:55;24.73;;;10.75;;
42912;SDS011;50720;54.324;18.558;2023-12-28T05:58:46;25.38;;;11.57;;
42912;SDS011;50720;54.324;18.558;2023-12-28T06:01:29;25.08;;;10.85;;
42912;SDS011;50720;54.324;18.558;2023-12-28T06:04:13;29.48;;;12.43;;
42912;SDS011;50720;54.324;18.558;2023-12-28T06:06:57;28.95;;;12.27;;
42912;SDS011;50720;54.324;18.558;2023-12-28T06:09:41;24.80;;;11.15;;
42912;SDS011;50720;54.324;18.558;2023-12-28T06:12:26;29.13;;;10.68;;
42912;SDS011;50720;54.324;18.558;2023-12-28T06:15:11;31.02;;;11.63;;
42912;SDS011;50720;54.324;18.558;2023-12-28T06:17:55;28.55;;;11.55;;
42912;SDS011;50720;54.324;18.558;2023-12-28T06:20:39;23.63;;;9.98;;
42912;SDS011;50720;54.324;18.558;2023-12-28T06:23:23;26.40;;;12.18;;
42912;SDS011;50720;54.324;18.558;2023-12-28T06:26:07;37.80;;;14.15;;
42912;SDS011;50720;54.324;18.558;2023-12-28T06:28:51;25.05;;;11.40;;
42912;SDS011;50720;54.324;18.558;2023-12-28T06:31:36;20.33;;;10.52;;
42912;SDS011;50720;54.324;18.558;2023-12-28T06:34:20;25.38;;;10.68;;
42912;SDS011;50720;54.324;18.558;2023-12-28T06:37:04;26.50;;;11.77;;
42912;SDS011;50720;54.324;18.558;2023-12-28T06:39:48;28.23;;;11.82;;
42912;SDS011;50720;54.324;18.558;2023-12-28T06:42:32;22.13;;;11.10;;
42912;SDS011;50720;54.324;18.558;2023-12-28T06:45:15;25.58;;;11.43;;
42912;SDS011;50720;54.324;18.558;2023-12-28T06:48:00;26.52;;;10.70;;
42912;SDS011;50720;54.324;18.558;2023-12-28T06:50:45;29.65;;;10.32;;
42912;SDS011;50720;54.324;18.558;2023-12-28T06:53:28;27.02;;;11.50;;
42912;SDS011;50720;54.324;18.558;2023-12-28T06:56:12;30.58;;;10.50;;
42912;SDS011;50720;54.324;18.558;2023-12-28T06:58:56;35.30;;;11.63;;
42912;SDS011;50720;54.324;18.558;2023-12-28T07:01:39;22.52;;;10.15;;
42912;SDS011;50720;54.324;18.558;2023-12-28T07:04:25;22.08;;;9.35;;
42912;SDS011;50720;54.324;18.558;2023-12-28T07:07:10;20.38;;;9.80;;
42912;SDS011;50720;54.324;18.558;2023-12-28T07:09:55;24.50;;;11.20;;
42912;SDS011;50720;54.324;18.558;2023-12-28T07:12:39;24.52;;;9.63;;
42912;SDS011;50720;54.324;18.558;2023-12-28T07:15:23;23.08;;;9.75;;
42912;SDS011;50720;54.324;18.558;2023-12-28T07:18:07;25.85;;;10.35;;
42912;SDS011;50720;54.324;18.558;2023-12-28T07:20:52;24.65;;;10.43;;
42912;SDS011;50720;54.324;18.558;2023-12-28T07:23:35;21.10;;;9.98;;
42912;SDS011;50720;54.324;18.558;2023-12-28T07:26:19;25.73;;;11.23;;
42912;SDS011;50720;54.324;18.558;2023-12-28T07:29:03;23.98;;;9.52;;
42912;SDS011;50720;54.324;18.558;2023-12-28T07:31:47;27.40;;;12.82;;
42912;SDS011;50720;54.324;18.558;2023-12-28T07:34:30;18.23;;;10.48;;
42912;SDS011;50720;54.324;18.558;2023-12-28T07:37:16;28.83;;;10.93;;
42912;SDS011;50720;54.324;18.558;2023-12-28T07:39:59;20.05;;;9.60;;
42912;SDS011;50720;54.324;18.558;2023-12-28T07:42:43;21.65;;;9.10;;
42912;SDS011;50720;54.324;18.558;2023-12-28T07:45:27;15.05;;;8.32;;
42912;SDS011;50720;54.324;18.558;2023-12-28T07:48:11;20.98;;;9.45;;
42912;SDS011;50720;54.324;18.558;2023-12-28T07:50:54;21.90;;;8.93;;
42912;SDS011;50720;54.324;18.558;2023-12-28T07:53:40;20.10;;;9.23;;
42912;SDS011;50720;54.324;18.558;2023-12-28T07:56:23;23.10;;;8.55;;
42912;SDS011;50720;54.324;18.558;2023-12-28T07:59:07;26.90;;;9.02;;
42912;SDS011;50720;54.324;18.558;2023-12-28T08:01:51;25.95;;;9.95;;
42912;SDS011;50720;54.324;18.558;2023-12-28T08:04:34;19.02;;;8.52;;
42912;SDS011;50720;54.324;18.558;2023-12-28T08:07:18;16.08;;;7.18;;
42912;SDS011;50720;54.324;18.558;2023-12-28T08:10:04;21.48;;;9.38;;
42912;SDS011;50720;54.324;18.558;2023-12-28T08:12:48;17.08;;;7.07;;
42912;SDS011;50720;54.324;18.558;2023-12-28T08:15:31;18.98;;;7.75;;
42912;SDS011;50720;54.324;18.558;2023-12-28T08:18:15;16.95;;;6.70;;
42912;SDS011;50720;54.324;18.558;2023-12-28T08:21:00;23.45;;;10.55;;
42912;SDS011;50720;54.324;18.558;2023-12-28T08:23:43;14.70;;;6.82;;
42912;SDS011;50720;54.324;18.558;2023-12-28T08:26:28;16.25;;;8.43;;
42912;SDS011;50720;54.324;18.558;2023-12-28T08:29:14;19.38;;;6.32;;
42912;SDS011;50720;54.324;18.558;2023-12-28T08:31:57;17.05;;;7.40;;
42912;SDS011;50720;54.324;18.558;2023-12-28T08:34:41;10.48;;;6.43;;
42912;SDS011;50720;54.324;18.558;2023-12-28T08:37:25;14.48;;;6.72;;
42912;SDS011;50720;54.324;18.558;2023-12-28T08:40:09;14.75;;;7.10;;
42912;SDS011;50720;54.324;18.558;2023-12-28T08:42:55;13.70;;;6.28;;
42912;SDS011;50720;54.324;18.558;2023-12-28T08:45:38;18.15;;;8.00;;
42912;SDS011;50720;54.324;18.558;2023-12-28T08:48:23;16.02;;;6.90;;
42912;SDS011;50720;54.324;18.558;2023-12-28T08:51:06;19.02;;;7.72;;
42912;SDS011;50720;54.324;18.558;2023-12-28T08:53:51;17.75;;;8.48;;
42912;SDS011;50720;54.324;18.558;2023-12-28T08:56:35;10.45;;;5.90;;
42912;SDS011;50720;54.324;18.558;2023-12-28T08:59:20;14.57;;;6.20;;
42912;SDS011;50720;54.324;18.558;2023-12-28T09:02:04;16.27;;;7.22;;
42912;SDS011;50720;54.324;18.558;2023-12-28T09:04:48;14.32;;;6.57;;
42912;SDS011;50720;54.324;18.558;2023-12-28T09:07:32;12.13;;;5.88;;
42912;SDS011;50720;54.324;18.558;2023-12-28T09:10:17;13.20;;;5.97;;
42912;SDS011;50720;54.324;18.558;2023-12-28T09:13:03;12.13;;;6.10;;
42912;SDS011;50720;54.324;18.558;2023-12-28T09:15:49;15.32;;;7.32;;
42912;SDS011;50720;54.324;18.558;2023-12-28T09:18:32;12.40;;;6.22;;
42912;SDS011;50720;54.324;18.558;2023-12-28T09:21:18;12.70;;;7.10;;
42912;SDS011;50720;54.324;18.558;2023-12-28T09:24:02;12.93;;;6.90;;
42912;SDS011;50720;54.324;18.558;2023-12-28T09:26:46;13.45;;;6.68;;
42912;SDS011;50720;54.324;18.558;2023-12-28T09:29:30;16.83;;;8.20;;
42912;SDS011;50720;54.324;18.558;2023-12-28T09:32:16;14.70;;;6.95;;
42912;SDS011;50720;54.324;18.558;2023-12-28T09:34:59;16.40;;;8.45;;
42912;SDS011;50720;54.324;18.558;2023-12-28T09:37:43;14.90;;;7.45;;
42912;SDS011;50720;54.324;18.558;2023-12-28T09:40:29;16.02;;;7.03;;
42912;SDS011;50720;54.324;18.558;2023-12-28T10:25:23;9.93;;;5.93;;
42912;SDS011;50720;54.324;18.558;2023-12-28T10:33:54;13.25;;;6.03;;
42912;SDS011;50720;54.324;18.558;2023-12-28T10:36:45;11.88;;;5.22;;
42912;SDS011;50720;54.324;18.558;2023-12-28T10:39:29;13.73;;;5.78;;
42912;SDS011;50720;54.324;18.558;2023-12-28T10:42:28;10.80;;;5.63;;
42912;SDS011;50720;54.324;18.558;2023-12-28T10:45:13;9.40;;;5.72;;
42912;SDS011;50720;54.324;18.558;2023-12-28T10:48:00;12.77;;;5.93;;
42912;SDS011;50720;54.324;18.558;2023-12-28T10:50:49;10.68;;;5.47;;
42912;SDS011;50720;54.324;18.558;2023-12-28T10:53:36;12.25;;;5.20;;
42912;SDS011;50720;54.324;18.558;2023-12-28T10:56:20;10.88;;;6.13;;
42912;SDS011;50720;54.324;18.558;2023-12-28T10:59:16;13.60;;;6.93;;
42912;SDS011;50720;54.324;18.558;2023-12-28T11:02:01;14.60;;;7.30;;
42912;SDS011;50720;54.324;18.558;2023-12-28T11:04:48;12.65;;;7.15;;
42912;SDS011;50720;54.324;18.558;2023-12-28T11:07:26;14.95;;;8.13;;
42912;SDS011;50720;54.324;18.558;2023-12-28T11:10:14;13.10;;;7.32;;
42912;SDS011;50720;54.324;18.558;2023-12-28T11:12:58;14.05;;;6.28;;
42912;SDS011;50720;54.324;18.558;2023-12-28T11:15:44;10.13;;;6.57;;
42912;SDS011;50720;54.324;18.558;2023-12-28T11:18:29;16.33;;;5.90;;
42912;SDS011;50720;54.324;18.558;2023-12-28T11:21:13;10.65;;;5.75;;
42912;SDS011;50720;54.324;18.558;2023-12-28T11:23:58;8.48;;;4.78;;
42912;SDS011;50720;54.324;18.558;2023-12-28T11:26:42;10.63;;;4.63;;
42912;SDS011;50720;54.324;18.558;2023-12-28T11:29:28;9.48;;;5.22;;
42912;SDS011;50720;54.324;18.558;2023-12-28T11:32:14;9.23;;;4.75;;
42912;SDS011;50720;54.324;18.558;2023-12-28T11:34:58;8.00;;;3.80;;
42912;SDS011;50720;54.324;18.558;2023-12-28T11:37:42;11.27;;;4.93;;
42912;SDS011;50720;54.324;18.558;2023-12-28T11:40:29;10.85;;;3.83;;
42912;SDS011;50720;54.324;18.558;2023-12-28T11:43:17;6.68;;;4.40;;
42912;SDS011;50720;54.324;18.558;2023-12-28T11:46:01;8.43;;;3.78;;
42912;SDS011;50720;54.324;18.558;2023-12-28T11:48:49;7.97;;;4.50;;
42912;SDS011;50720;54.324;18.558;2023-12-28T11:51:33;9.60;;;4.68;;
42912;SDS011;50720;54.324;18.558;2023-12-28T11:54:18;15.43;;;5.22;;
42912;SDS011;50720;54.324;18.558;2023-12-28T11:57:01;12.82;;;4.55;;
42912;SDS011;50720;54.324;18.558;2023-12-28T11:59:45;10.85;;;4.18;;
42912;SDS011;50720;54.324;18.558;2023-12-28T12:02:30;11.05;;;3.58;;
42912;SDS011;50720;54.324;18.558;2023-12-28T12:05:15;7.72;;;2.90;;
42912;SDS011;50720;54.324;18.558;2023-12-28T12:07:59;5.47;;;2.75;;
42912;SDS011;50720;54.324;18.558;2023-12-28T12:10:43;12.60;;;3.65;;
42912;SDS011;50720;54.324;18.558;2023-12-28T12:13:27;5.55;;;2.30;;
42912;SDS011;50720;54.324;18.558;2023-12-28T12:16:13;10.18;;;3.78;;
42912;SDS011;50720;54.324;18.558;2023-12-28T12:18:57;4.95;;;2.33;;
42912;SDS011;50720;54.324;18.558;2023-12-28T12:21:42;11.40;;;2.75;;
42912;SDS011;50720;54.324;18.558;2023-12-28T12:24:26;8.43;;;3.38;;
42912;SDS011;50720;54.324;18.558;2023-12-28T12:27:10;4.60;;;2.33;;
42912;SDS011;50720;54.324;18.558;2023-12-28T12:29:54;4.53;;;2.40;;
42912;SDS011;50720;54.324;18.558;2023-12-28T12:32:38;5.15;;;2.75;;
42912;SDS011;50720;54.324;18.558;2023-12-28T12:35:25;6.50;;;2.70;;
42912;SDS011;50720;54.324;18.558;2023-12-28T12:38:10;4.72;;;2.67;;
42912;SDS011;50720;54.324;18.558;2023-12-28T12:40:54;5.55;;;2.40;;
42912;SDS011;50720;54.324;18.558;2023-12-28T12:43:37;5.25;;;2.50;;
42912;SDS011;50720;54.324;18.558;2023-12-28T12:46:22;9.18;;;4.15;;
42912;SDS011;50720;54.324;18.558;2023-12-28T12:49:06;5.28;;;3.03;;
42912;SDS011;50720;54.324;18.558;2023-12-28T12:51:50;5.30;;;2.28;;
42912;SDS011;50720;54.324;18.558;2023-12-28T12:54:35;7.00;;;3.15;;
42912;SDS011;50720;54.324;18.558;2023-12-28T12:57:19;9.00;;;3.25;;
42912;SDS011;50720;54.324;18.558;2023-12-28T13:00:03;7.95;;;3.30;;
42912;SDS011;50720;54.324;18.558;2023-12-28T13:02:50;5.32;;;2.58;;
42912;SDS011;50720;54.324;18.558;2023-12-28T13:05:37;7.97;;;3.65;;
42912;SDS011;50720;54.324;18.558;2023-12-28T13:08:21;10.32;;;3.70;;
42912;SDS011;50720;54.324;18.558;2023-12-28T13:11:06;8.27;;;3.10;;
42912;SDS011;50720;54.324;18.558;2023-12-28T13:13:52;9.43;;;3.30;;
42912;SDS011;50720;54.324;18.558;2023-12-28T13:16:35;6.88;;;3.22;;
42912;SDS011;50720;54.324;18.558;2023-12-28T13:19:19;6.93;;;3.38;;
42912;SDS011;50720;54.324;18.558;2023-12-28T13:22:03;8.10;;;3.42;;
42912;SDS011;50720;54.324;18.558;2023-12-28T13:24:47;7.20;;;3.58;;
42912;SDS011;50720;54.324;18.558;2023-12-28T13:27:34;12.55;;;3.97;;
42912;SDS011;50720;54.324;18.558;2023-12-28T13:30:17;8.55;;;3.63;;
42912;SDS011;50720;54.324;18.558;2023-12-28T13:33:03;6.03;;;2.55;;
42912;SDS011;50720;54.324;18.558;2023-12-28T13:35:47;8.57;;;3.15;;
42912;SDS011;50720;54.324;18.558;2023-12-28T13:38:31;9.75;;;3.97;;
42912;SDS011;50720;54.324;18.558;2023-12-28T13:41:15;8.98;;;3.60;;
42912;SDS011;50720;54.324;18.558;2023-12-28T13:44:01;10.70;;;3.70;;
42912;SDS011;50720;54.324;18.558;2023-12-28T13:46:45;9.73;;;3.50;;
42912;SDS011;50720;54.324;18.558;2023-12-28T13:49:30;11.77;;;3.53;;
42912;SDS011;50720;54.324;18.558;2023-12-28T13:52:14;7.72;;;4.15;;
42912;SDS011;50720;54.324;18.558;2023-12-28T13:54:58;8.15;;;3.20;;
42912;SDS011;50720;54.324;18.558;2023-12-28T13:57:42;5.25;;;3.20;;
42912;SDS011;50720;54.324;18.558;2023-12-28T14:00:27;7.45;;;3.22;;
42912;SDS011;50720;54.324;18.558;2023-12-28T14:03:11;5.88;;;3.03;;
42912;SDS011;50720;54.324;18.558;2023-12-28T14:05:55;8.43;;;3.40;;
42912;SDS011;50720;54.324;18.558;2023-12-28T14:08:38;8.10;;;3.42;;
42912;SDS011;50720;54.324;18.558;2023-12-28T14:11:22;6.53;;;3.60;;
42912;SDS011;50720;54.324;18.558;2023-12-28T14:14:05;9.18;;;4.55;;
42912;SDS011;50720;54.324;18.558;2023-12-28T14:16:51;7.28;;;3.15;;
42912;SDS011;50720;54.324;18.558;2023-12-28T14:19:34;8.52;;;3.45;;
42912;SDS011;50720;54.324;18.558;2023-12-28T14:22:18;10.32;;;3.42;;
42912;SDS011;50720;54.324;18.558;2023-12-28T14:25:02;7.70;;;3.15;;
42912;SDS011;50720;54.324;18.558;2023-12-28T14:27:47;6.70;;;3.75;;
42912;SDS011;50720;54.324;18.558;2023-12-28T14:30:31;9.75;;;4.03;;
42912;SDS011;50720;54.324;18.558;2023-12-28T14:33:20;7.07;;;2.90;;
42912;SDS011;50720;54.324;18.558;2023-12-28T14:36:04;6.82;;;2.92;;
42912;SDS011;50720;54.324;18.558;2023-12-28T14:38:51;5.18;;;3.47;;
42912;SDS011;50720;54.324;18.558;2023-12-28T14:41:35;10.68;;;2.83;;
42912;SDS011;50720;54.324;18.558;2023-12-28T14:44:24;9.02;;;2.83;;
42912;SDS011;50720;54.324;18.558;2023-12-28T14:47:08;8.00;;;3.05;;
42912;SDS011;50720;54.324;18.558;2023-12-28T14:49:53;6.38;;;4.00;;
42912;SDS011;50720;54.324;18.558;2023-12-28T14:52:37;7.55;;;4.18;;
42912;SDS011;50720;54.324;18.558;2023-12-28T14:55:24;7.05;;;3.20;;
42912;SDS011;50720;54.324;18.558;2023-12-28T14:58:09;6.43;;;2.33;;
42912;SDS011;50720;54.324;18.558;2023-12-28T15:00:53;6.93;;;3.22;;
42912;SDS011;50720;54.324;18.558;2023-12-28T15:03:37;6.47;;;3.40;;
42912;SDS011;50720;54.324;18.558;2023-12-28T15:06:23;4.93;;;2.78;;
42912;SDS011;50720;54.324;18.558;2023-12-28T15:09:06;8.20;;;4.30;;
42912;SDS011;50720;54.324;18.558;2023-12-28T15:11:51;6.25;;;2.53;;
42912;SDS011;50720;54.324;18.558;2023-12-28T15:14:36;5.65;;;3.05;;
42912;SDS011;50720;54.324;18.558;2023-12-28T15:17:20;6.82;;;3.30;;
42912;SDS011;50720;54.324;18.558;2023-12-28T15:20:04;6.68;;;3.00;;
42912;SDS011;50720;54.324;18.558;2023-12-28T15:22:54;8.55;;;3.20;;
42912;SDS011;50720;54.324;18.558;2023-12-28T15:25:38;6.75;;;2.95;;
42912;SDS011;50720;54.324;18.558;2023-12-28T15:28:21;8.23;;;3.25;;
42912;SDS011;50720;54.324;18.558;2023-12-28T15:31:05;7.50;;;3.20;;
42912;SDS011;50720;54.324;18.558;2023-12-28T15:33:49;8.02;;;3.05;;
42912;SDS011;50720;54.324;18.558;2023-12-28T15:36:33;7.75;;;3.15;;
42912;SDS011;50720;54.324;18.558;2023-12-28T15:39:18;5.53;;;3.33;;
42912;SDS011;50720;54.324;18.558;2023-12-28T15:42:01;7.20;;;2.65;;
42912;SDS011;50720;54.324;18.558;2023-12-28T15:44:45;6.32;;;2.38;;
42912;SDS011;50720;54.324;18.558;2023-12-28T15:47:29;7.43;;;3.20;;
42912;SDS011;50720;54.324;18.558;2023-12-28T15:50:12;13.15;;;4.25;;
42912;SDS011;50720;54.324;18.558;2023-12-28T15:52:56;9.88;;;3.78;;
42912;SDS011;50720;54.324;18.558;2023-12-28T15:55:42;5.05;;;2.72;;
42912;SDS011;50720;54.324;18.558;2023-12-28T15:58:26;6.85;;;3.28;;
42912;SDS011;50720;54.324;18.558;2023-12-28T16:01:10;9.68;;;2.95;;
42912;SDS011;50720;54.324;18.558;2023-12-28T16:03:54;8.45;;;3.22;;
42912;SDS011;50720;54.324;18.558;2023-12-28T16:06:37;14.65;;;3.38;;
42912;SDS011;50720;54.324;18.558;2023-12-28T16:09:21;6.00;;;2.60;;
42912;SDS011;50720;54.324;18.558;2023-12-28T16:12:07;5.75;;;3.00;;
42912;SDS011;50720;54.324;18.558;2023-12-28T16:14:51;6.57;;;3.00;;
42912;SDS011;50720;54.324;18.558;2023-12-28T16:17:35;7.65;;;3.50;;
42912;SDS011;50720;54.324;18.558;2023-12-28T16:20:19;8.95;;;3.38;;
42912;SDS011;50720;54.324;18.558;2023-12-28T16:23:03;5.88;;;3.47;;
42912;SDS011;50720;54.324;18.558;2023-12-28T16:25:47;8.43;;;3.10;;
42912;SDS011;50720;54.324;18.558;2023-12-28T16:28:32;4.22;;;2.95;;
42912;SDS011;50720;54.324;18.558;2023-12-28T16:31:18;7.00;;;4.00;;
42912;SDS011;50720;54.324;18.558;2023-12-28T16:34:01;5.18;;;2.70;;
42912;SDS011;50720;54.324;18.558;2023-12-28T16:36:51;6.65;;;3.38;;
42912;SDS011;50720;54.324;18.558;2023-12-28T16:39:35;6.20;;;3.05;;
42912;SDS011;50720;54.324;18.558;2023-12-28T16:42:18;6.05;;;3.13;;
42912;SDS011;50720;54.324;18.558;2023-12-28T16:45:04;11.98;;;3.75;;
42912;SDS011;50720;54.324;18.558;2023-12-28T16:47:48;7.78;;;2.58;;
42912;SDS011;50720;54.324;18.558;2023-12-28T16:50:32;7.30;;;2.88;;
42912;SDS011;50720;54.324;18.558;2023-12-28T16:53:19;6.13;;;2.67;;
42912;SDS011;50720;54.324;18.558;2023-12-28T16:56:03;6.32;;;2.83;;